createdAt,value
2017-04-21T00:00:45.354Z,68.95
2017-04-21T00:01:46.773Z,68.76
2017-04-21T00:02:48.189Z,68.66
2017-04-21T00:03:49.620Z,67.85
2017-04-21T00:04:51.043Z,68.60
2017-04-21T00:05:52.459Z,68.76
2017-04-21T00:06:53.879Z,68.57
2017-04-21T00:07:55.309Z,68.76
2017-04-21T00:08:56.729Z,69.04
2017-04-21T00:09:58.151Z,69.74
2017-04-21T00:10:59.571Z,68.76
2017-04-21T00:12:00.988Z,68.66
2017-04-21T00:13:02.411Z,68.95
2017-04-21T00:14:03.829Z,68.85
2017-04-21T00:15:05.250Z,68.76
2017-04-21T00:16:06.662Z,68.98
2017-04-21T00:17:08.085Z,69.23
2017-04-21T00:18:09.501Z,69.61
2017-04-21T00:19:10.922Z,70.09
2017-04-21T00:20:12.339Z,69.13
2017-04-21T00:21:13.751Z,69.23
2017-04-21T00:22:15.171Z,69.52
2017-04-21T00:23:16.590Z,69.52
2017-04-21T00:24:18.013Z,70.18
2017-04-21T00:25:19.427Z,70.18
2017-04-21T00:26:20.851Z,69.61
2017-04-21T00:27:22.268Z,69.42
2017-04-21T00:28:23.685Z,69.52
2017-04-21T00:29:25.121Z,68.79
2017-04-21T00:30:26.538Z,68.66
2017-04-21T00:31:27.971Z,69.71
2017-04-21T00:32:29.399Z,69.61
2017-04-21T00:33:30.810Z,69.71
2017-04-21T00:34:32.227Z,69.61
2017-04-21T00:35:33.605Z,70.37
2017-04-21T00:36:35.023Z,70.56
2017-04-21T00:37:36.465Z,70.21
2017-04-21T00:38:37.975Z,69.36
2017-04-21T00:39:40.654Z,68.98
2017-04-21T00:40:42.075Z,68.89
2017-04-21T00:41:43.498Z,68.89
2017-04-21T00:42:44.920Z,68.23
2017-04-21T00:43:46.338Z,69.36
2017-04-21T00:44:47.769Z,71.26
2017-04-21T00:45:49.139Z,70.98
2017-04-21T00:46:50.556Z,71.41
2017-04-21T00:47:51.982Z,71.60
2017-04-21T00:48:53.404Z,70.59
2017-04-21T00:49:54.829Z,70.50
2017-04-21T00:50:56.249Z,70.21
2017-04-21T00:51:57.682Z,69.99
2017-04-21T00:53:00.188Z,70.47
2017-04-21T00:54:01.620Z,70.47
2017-04-21T00:55:03.037Z,71.22
2017-04-21T00:56:04.474Z,71.32
2017-04-21T00:57:05.900Z,71.80
2017-04-21T00:58:07.315Z,70.75
2017-04-21T00:59:08.740Z,70.84
2017-04-21T01:00:10.168Z,70.84
2017-04-21T01:01:11.597Z,70.18
2017-04-21T01:02:13.008Z,70.12
2017-04-21T01:03:14.435Z,69.74
2017-04-21T01:04:15.852Z,69.90
2017-04-21T01:05:17.263Z,70.65
2017-04-21T01:06:18.689Z,70.47
2017-04-21T01:07:20.114Z,70.47
2017-04-21T01:08:21.531Z,69.71
2017-04-21T01:09:22.956Z,70.18
2017-04-21T01:10:24.382Z,70.09
2017-04-21T01:11:25.805Z,70.09
2017-04-21T01:12:27.222Z,69.90
2017-04-21T01:13:28.636Z,69.33
2017-04-21T01:14:30.618Z,68.85
2017-04-21T01:15:32.036Z,68.95
2017-04-21T01:16:33.442Z,68.85
2017-04-21T01:17:34.860Z,68.70
2017-04-21T01:18:36.283Z,68.70
2017-04-21T01:19:37.780Z,69.08
2017-04-21T01:20:39.191Z,69.33
2017-04-21T01:21:40.617Z,68.85
2017-04-21T01:22:42.079Z,68.95
2017-04-21T01:23:43.501Z,69.33
2017-04-21T01:24:44.922Z,69.61
2017-04-21T01:25:46.397Z,70.18
2017-04-21T01:26:47.850Z,69.80
2017-04-21T01:27:49.278Z,69.99
2017-04-21T01:28:50.700Z,70.09
2017-04-21T01:29:52.129Z,69.71
2017-04-21T01:30:53.555Z,70.18
2017-04-21T01:31:54.972Z,69.90
2017-04-21T01:32:56.393Z,69.71
2017-04-21T01:33:57.810Z,70.18
2017-04-21T01:34:59.233Z,71.22
2017-04-21T01:36:00.657Z,70.28
2017-04-21T01:37:02.078Z,69.80
2017-04-21T01:38:03.508Z,69.08
2017-04-21T01:39:04.934Z,68.60
2017-04-21T01:40:06.350Z,68.60
2017-04-21T01:41:08.644Z,67.85
2017-04-21T01:42:10.093Z,68.13
2017-04-21T01:43:12.385Z,67.75
2017-04-21T01:44:13.803Z,67.90
2017-04-21T01:45:16.667Z,68.98
2017-04-21T01:46:18.091Z,68.57
2017-04-21T01:47:19.517Z,68.95
2017-04-21T01:48:20.932Z,68.85
2017-04-21T01:49:22.349Z,68.00
2017-04-21T01:50:23.768Z,68.10
2017-04-21T01:51:25.764Z,69.33
2017-04-21T01:52:27.190Z,69.42
2017-04-21T01:53:28.616Z,70.28
2017-04-21T01:54:30.031Z,69.90
2017-04-21T01:55:31.449Z,70.84
2017-04-21T01:56:32.872Z,71.03
2017-04-21T01:57:34.304Z,70.47
2017-04-21T01:58:35.719Z,70.75
2017-04-21T01:59:37.141Z,70.47
2017-04-21T02:00:38.560Z,71.03
2017-04-21T02:01:39.988Z,70.84
2017-04-21T02:02:41.406Z,70.50
2017-04-21T02:03:42.834Z,70.88
2017-04-21T02:04:44.299Z,70.50
2017-04-21T02:05:45.692Z,71.36
2017-04-21T02:06:47.109Z,71.51
2017-04-21T02:07:48.539Z,71.60
2017-04-21T02:08:49.978Z,72.64
2017-04-21T02:09:51.396Z,72.74
2017-04-21T02:10:52.858Z,73.03
2017-04-21T02:11:54.285Z,73.12
2017-04-21T02:12:55.706Z,72.93
2017-04-21T02:13:57.135Z,71.89
2017-04-21T02:14:58.551Z,71.89
2017-04-21T02:15:59.974Z,72.17
2017-04-21T02:17:01.390Z,72.55
2017-04-21T02:18:02.809Z,71.26
2017-04-21T02:19:04.227Z,69.93
2017-04-21T02:20:05.652Z,69.55
2017-04-21T02:21:07.073Z,69.46
2017-04-21T02:22:08.487Z,70.75
2017-04-21T02:23:09.912Z,70.56
2017-04-21T02:24:11.331Z,70.56
2017-04-21T02:25:12.750Z,69.99
2017-04-21T02:26:14.179Z,69.27
2017-04-21T02:27:15.600Z,68.98
2017-04-21T02:28:17.024Z,69.55
2017-04-21T02:29:18.444Z,69.99
2017-04-21T02:30:19.867Z,70.56
2017-04-21T02:31:21.287Z,71.22
2017-04-21T02:32:22.662Z,69.65
2017-04-21T02:33:24.086Z,69.27
2017-04-21T02:34:25.515Z,69.08
2017-04-21T02:35:26.932Z,68.79
2017-04-21T02:36:28.349Z,68.51
2017-04-21T02:37:29.768Z,69.84
2017-04-21T02:38:31.189Z,70.56
2017-04-21T02:39:32.608Z,70.84
2017-04-21T02:40:34.027Z,70.03
2017-04-21T02:41:35.458Z,68.98
2017-04-21T02:42:36.886Z,70.12
2017-04-21T02:43:38.299Z,69.65
2017-04-21T02:44:39.723Z,70.21
2017-04-21T02:45:41.140Z,71.64
2017-04-21T02:46:42.562Z,71.92
2017-04-21T02:47:43.982Z,71.55
2017-04-21T02:48:45.404Z,71.55
2017-04-21T02:49:46.817Z,71.73
2017-04-21T02:50:48.276Z,71.55
2017-04-21T02:51:49.701Z,72.02
2017-04-21T02:52:51.081Z,72.11
2017-04-21T02:53:52.500Z,72.97
2017-04-21T02:54:53.924Z,73.50
2017-04-21T02:55:55.351Z,73.22
2017-04-21T02:56:56.777Z,74.01
2017-04-21T02:57:58.327Z,73.22
2017-04-21T02:58:59.725Z,74.26
2017-04-21T03:00:01.142Z,74.64
2017-04-21T03:01:02.561Z,74.54
2017-04-21T03:02:03.984Z,73.79
2017-04-21T03:03:05.400Z,73.22
2017-04-21T03:04:06.815Z,72.27
2017-04-21T03:05:08.235Z,71.26
2017-04-21T03:06:09.657Z,69.74
2017-04-21T03:07:11.076Z,68.70
2017-04-21T03:08:12.499Z,68.73
2017-04-21T03:09:13.929Z,69.02
2017-04-21T03:10:15.346Z,69.27
2017-04-21T03:11:16.768Z,70.69
2017-04-21T03:12:18.188Z,71.45
2017-04-21T03:13:19.564Z,68.98
2017-04-21T03:14:20.989Z,69.21
2017-04-21T03:15:22.404Z,68.83
2017-04-21T03:16:23.829Z,68.16
2017-04-21T03:17:25.249Z,68.64
2017-04-21T03:18:26.668Z,69.40
2017-04-21T03:19:28.090Z,69.59
2017-04-21T03:20:29.514Z,69.49
2017-04-21T03:21:30.923Z,69.40
2017-04-21T03:22:32.348Z,69.02
2017-04-21T03:23:33.780Z,69.59
2017-04-21T03:24:35.145Z,68.92
2017-04-21T03:25:36.568Z,68.64
2017-04-21T03:26:37.984Z,67.79
2017-04-21T03:27:39.398Z,67.59
2017-04-21T03:28:40.820Z,69.02
2017-04-21T03:29:42.242Z,69.40
2017-04-21T03:30:43.655Z,69.02
2017-04-21T03:31:45.078Z,69.59
2017-04-21T03:32:46.505Z,69.78
2017-04-21T03:33:47.946Z,69.02
2017-04-21T03:34:49.368Z,70.06
2017-04-21T03:35:50.788Z,70.06
2017-04-21T03:36:52.211Z,68.83
2017-04-21T03:37:53.638Z,70.44
2017-04-21T03:38:55.050Z,69.78
2017-04-21T03:39:56.465Z,68.83
2017-04-21T03:40:57.879Z,68.07
2017-04-21T03:41:59.308Z,67.31
2017-04-21T03:43:00.728Z,67.88
2017-04-21T03:44:03.015Z,66.93
2017-04-21T03:45:04.432Z,66.87
2017-04-21T03:46:05.852Z,66.49
2017-04-21T03:47:07.268Z,66.87
2017-04-21T03:48:08.692Z,66.17
2017-04-21T03:49:10.111Z,66.27
2017-04-21T03:50:11.530Z,66.83
2017-04-21T03:51:12.968Z,67.40
2017-04-21T03:52:14.381Z,66.39
2017-04-21T03:53:15.810Z,65.12
2017-04-21T03:54:17.228Z,64.40
2017-04-21T03:55:18.648Z,64.49
2017-04-21T03:56:20.864Z,64.78
2017-04-21T03:57:22.284Z,62.78
2017-04-21T03:58:23.701Z,63.73
2017-04-21T03:59:25.125Z,63.83
2017-04-21T04:00:26.547Z,63.92
2017-04-21T04:01:27.962Z,63.92
2017-04-21T04:02:29.386Z,64.40
2017-04-21T04:03:30.800Z,64.40
2017-04-21T04:04:32.224Z,63.73
2017-04-21T04:05:34.380Z,63.92
2017-04-21T04:06:35.803Z,61.74
2017-04-21T04:07:37.221Z,61.93
2017-04-21T04:08:38.651Z,60.69
2017-04-21T04:09:40.074Z,60.60
2017-04-21T04:10:41.498Z,60.03
2017-04-21T04:11:42.922Z,60.03
2017-04-21T04:12:44.341Z,61.36
2017-04-21T04:13:45.770Z,59.84
2017-04-21T04:14:47.193Z,59.65
2017-04-21T04:15:48.620Z,59.65
2017-04-21T04:16:50.046Z,58.51
2017-04-21T04:17:51.421Z,58.80
2017-04-21T04:18:52.836Z,58.61
2017-04-21T04:19:54.261Z,58.73
2017-04-21T04:20:55.689Z,58.83
2017-04-21T04:21:57.108Z,59.11
2017-04-21T04:22:58.534Z,59.11
2017-04-21T04:23:59.960Z,61.39
2017-04-21T04:25:01.382Z,60.06
2017-04-21T04:26:02.807Z,59.49
2017-04-21T04:27:04.231Z,57.97
2017-04-21T04:28:05.653Z,56.54
2017-04-21T04:29:07.075Z,58.54
2017-04-21T04:30:08.498Z,58.83
2017-04-21T04:31:09.921Z,60.35
2017-04-21T04:32:11.339Z,59.39
2017-04-21T04:33:12.756Z,61.20
2017-04-21T04:34:14.184Z,59.39
2017-04-21T04:35:15.595Z,59.96
2017-04-21T04:36:17.020Z,57.78
2017-04-21T04:37:18.453Z,55.59
2017-04-21T04:38:19.884Z,57.02
2017-04-21T04:39:21.320Z,56.63
2017-04-21T04:40:22.720Z,56.26
2017-04-21T04:41:24.142Z,54.74
2017-04-21T04:42:25.574Z,56.35
2017-04-21T04:43:27.003Z,57.78
2017-04-21T04:44:28.427Z,56.83
2017-04-21T04:45:29.916Z,58.06
2017-04-21T04:46:31.340Z,55.43
2017-04-21T04:47:32.766Z,55.43
2017-04-21T04:48:34.192Z,54.10
2017-04-21T04:49:35.613Z,56.45
2017-04-21T04:50:37.033Z,55.90
2017-04-21T04:51:38.456Z,56.48
2017-04-21T04:52:39.893Z,57.71
2017-04-21T04:53:41.311Z,56.29
2017-04-21T04:54:42.729Z,57.43
2017-04-21T04:55:44.161Z,57.33
2017-04-21T04:56:45.583Z,57.24
2017-04-21T04:57:47.011Z,53.81
2017-04-21T04:58:48.447Z,54.96
2017-04-21T04:59:49.870Z,56.10
2017-04-21T05:00:51.261Z,57.33
2017-04-21T05:01:52.679Z,55.62
2017-04-21T05:02:54.117Z,54.38
2017-04-21T05:03:55.542Z,55.05
2017-04-21T05:04:56.959Z,55.33
2017-04-21T05:05:58.382Z,57.04
2017-04-21T05:06:59.810Z,55.43
2017-04-21T05:08:01.236Z,55.90
2017-04-21T05:09:02.658Z,55.52
2017-04-21T05:10:04.081Z,54.67
2017-04-21T05:11:05.502Z,56.10
2017-04-21T05:12:06.936Z,58.18
2017-04-21T05:13:08.361Z,58.66
2017-04-21T05:14:09.781Z,58.37
2017-04-21T05:15:11.200Z,57.14
2017-04-21T05:16:12.626Z,54.29
2017-04-21T05:17:14.047Z,54.96
2017-04-21T05:18:15.474Z,55.71
2017-04-21T05:19:16.901Z,56.76
2017-04-21T05:20:18.327Z,58.47
2017-04-21T05:21:19.755Z,57.90
2017-04-21T05:22:21.187Z,58.18
2017-04-21T05:23:22.611Z,57.71
2017-04-21T05:24:24.036Z,56.38
2017-04-21T05:25:25.461Z,57.24
2017-04-21T05:26:26.888Z,58.47
2017-04-21T05:27:28.310Z,58.76
2017-04-21T05:28:29.732Z,56.48
2017-04-21T05:29:31.171Z,57.33
2017-04-21T05:30:32.592Z,57.90
2017-04-21T05:31:34.024Z,58.57
2017-04-21T05:32:35.401Z,57.04
2017-04-21T05:33:36.827Z,57.62
2017-04-21T05:34:38.250Z,57.14
2017-04-21T05:35:39.672Z,58.85
2017-04-21T05:36:41.098Z,58.95
2017-04-21T05:37:42.524Z,56.19
2017-04-21T05:38:43.947Z,55.62
2017-04-21T05:39:45.371Z,55.71
2017-04-21T05:40:46.805Z,58.57
2017-04-21T05:41:48.229Z,58.00
2017-04-21T05:42:49.654Z,55.74
2017-04-21T05:43:51.088Z,55.15
2017-04-21T05:44:52.509Z,56.00
2017-04-21T05:45:53.943Z,57.33
2017-04-21T05:46:55.367Z,56.67
2017-04-21T05:47:56.790Z,56.00
2017-04-21T05:48:58.214Z,58.28
2017-04-21T05:49:59.642Z,57.90
2017-04-21T05:51:01.071Z,56.29
2017-04-21T05:52:02.501Z,57.36
2017-04-21T05:53:03.928Z,57.52
2017-04-21T05:54:05.351Z,56.38
2017-04-21T05:55:06.908Z,57.52
2017-04-21T05:56:08.343Z,56.38
2017-04-21T05:57:09.772Z,58.28
2017-04-21T05:58:11.215Z,58.00
2017-04-21T05:59:12.642Z,59.71
2017-04-21T06:00:14.078Z,60.75
2017-04-21T06:01:15.500Z,63.42
2017-04-21T06:02:16.926Z,63.51
2017-04-21T06:03:18.349Z,61.80
2017-04-21T06:04:19.797Z,61.61
2017-04-21T06:05:21.194Z,60.18
2017-04-21T06:06:22.615Z,60.69
2017-04-21T06:07:24.031Z,62.18
2017-04-21T06:08:25.454Z,62.27
2017-04-21T06:09:26.875Z,59.05
2017-04-21T06:10:28.305Z,60.57
2017-04-21T06:11:29.733Z,59.61
2017-04-21T06:12:31.152Z,58.95
2017-04-21T06:13:32.957Z,59.99
2017-04-21T06:14:34.379Z,60.02
2017-04-21T06:15:35.802Z,59.52
2017-04-21T06:16:37.227Z,61.74
2017-04-21T06:17:38.653Z,60.97
2017-04-21T06:18:40.096Z,59.74
2017-04-21T06:19:41.523Z,59.74
2017-04-21T06:20:42.943Z,59.36
2017-04-21T06:21:44.379Z,59.07
2017-04-21T06:22:45.795Z,59.36
2017-04-21T06:23:47.228Z,58.59
2017-04-21T06:24:48.651Z,57.36
2017-04-21T06:25:50.072Z,56.41
2017-04-21T06:26:51.493Z,57.45
2017-04-21T06:27:52.932Z,58.59
2017-04-21T06:28:54.377Z,57.17
2017-04-21T06:29:55.801Z,57.17
2017-04-21T06:30:57.236Z,58.50
2017-04-21T06:31:58.657Z,58.88
2017-04-21T06:33:00.081Z,56.98
2017-04-21T06:34:01.514Z,56.12
2017-04-21T06:35:02.894Z,54.98
2017-04-21T06:36:04.321Z,56.12
2017-04-21T06:37:05.752Z,57.36
2017-04-21T06:38:07.182Z,56.41
2017-04-21T06:39:08.621Z,55.74
2017-04-21T06:40:10.037Z,54.60
2017-04-21T06:41:11.463Z,54.03
2017-04-21T06:42:12.889Z,53.55
2017-04-21T06:43:14.319Z,54.60
2017-04-21T06:44:15.753Z,54.53
2017-04-21T06:45:17.200Z,57.01
2017-04-21T06:46:18.580Z,56.24
2017-04-21T06:47:20.005Z,53.87
2017-04-21T06:48:21.429Z,52.25
2017-04-21T06:49:22.858Z,52.53
2017-04-21T06:50:24.282Z,52.92
2017-04-21T06:51:25.709Z,53.49
2017-04-21T06:52:27.134Z,53.49
2017-04-21T06:53:28.570Z,53.20
2017-04-21T06:54:30.003Z,52.44
2017-04-21T06:55:31.432Z,54.44
2017-04-21T06:56:32.854Z,53.77
2017-04-21T06:57:34.349Z,52.53
2017-04-21T06:58:35.774Z,53.11
2017-04-21T06:59:37.201Z,53.96
2017-04-21T07:00:38.630Z,52.63
2017-04-21T07:01:40.059Z,52.44
2017-04-21T07:02:41.491Z,52.53
2017-04-21T07:03:42.916Z,51.68
2017-04-21T07:04:44.343Z,52.44
2017-04-21T07:05:45.846Z,53.30
2017-04-21T07:06:47.272Z,50.25
2017-04-21T07:07:48.703Z,51.58
2017-04-21T07:08:50.215Z,51.68
2017-04-21T07:09:51.650Z,51.39
2017-04-21T07:10:53.083Z,51.30
2017-04-21T07:11:54.516Z,51.39
2017-04-21T07:12:55.944Z,52.44
2017-04-21T07:13:57.376Z,53.87
2017-04-21T07:14:58.806Z,52.61
2017-04-21T07:16:00.270Z,53.11
2017-04-21T07:17:01.698Z,54.53
2017-04-21T07:18:03.125Z,52.44
2017-04-21T07:19:04.561Z,50.82
2017-04-21T07:20:05.992Z,52.63
2017-04-21T07:21:07.425Z,53.01
2017-04-21T07:22:08.864Z,52.34
2017-04-21T07:23:10.302Z,51.10
2017-04-21T07:24:11.744Z,52.09
2017-04-21T07:25:13.175Z,51.30
2017-04-21T07:26:14.600Z,52.92
2017-04-21T07:27:16.036Z,52.53
2017-04-21T07:28:17.461Z,52.66
2017-04-21T07:29:18.892Z,52.66
2017-04-21T07:30:20.317Z,51.70
2017-04-21T07:31:21.754Z,51.89
2017-04-21T07:32:23.183Z,52.66
2017-04-21T07:33:24.614Z,53.61
2017-04-21T07:34:26.054Z,51.70
2017-04-21T07:35:27.482Z,51.04
2017-04-21T07:36:28.909Z,50.46
2017-04-21T07:37:30.336Z,49.82
2017-04-21T07:38:31.769Z,50.59
2017-04-21T07:39:33.195Z,51.82
2017-04-21T07:40:34.620Z,49.42
2017-04-21T07:41:36.057Z,48.66
2017-04-21T07:42:37.486Z,51.80
2017-04-21T07:43:38.868Z,49.51
2017-04-21T07:44:40.294Z,47.99
2017-04-21T07:45:41.734Z,48.66
2017-04-21T07:46:43.157Z,48.66
2017-04-21T07:47:44.590Z,48.56
2017-04-21T07:48:46.022Z,48.47
2017-04-21T07:49:47.449Z,49.61
2017-04-21T07:50:48.885Z,47.71
2017-04-21T07:51:50.314Z,49.61
2017-04-21T07:52:51.750Z,50.37
2017-04-21T07:53:53.179Z,50.66
2017-04-21T07:54:54.610Z,51.73
2017-04-21T07:55:56.037Z,49.71
2017-04-21T07:56:57.468Z,50.30
2017-04-21T07:57:58.892Z,49.82
2017-04-21T07:59:00.329Z,50.78
2017-04-21T08:00:23.171Z,49.82
2017-04-21T08:02:04.521Z,49.35
2017-04-21T08:03:05.958Z,50.30
2017-04-21T08:04:07.378Z,48.94
2017-04-21T08:05:08.812Z,48.94
2017-04-21T08:06:10.239Z,48.97
2017-04-21T08:07:11.672Z,48.85
2017-04-21T08:08:13.101Z,50.94
2017-04-21T08:09:14.535Z,50.27
2017-04-21T08:10:15.961Z,51.04
2017-04-21T08:11:17.389Z,48.27
2017-04-21T08:12:18.820Z,47.80
2017-04-21T08:13:20.249Z,48.11
2017-04-21T08:14:22.313Z,48.49
2017-04-21T08:15:23.742Z,49.73
2017-04-21T08:16:25.174Z,50.87
2017-04-21T08:17:26.605Z,48.97
2017-04-21T08:18:28.040Z,49.54
2017-04-21T08:19:29.475Z,51.89
2017-04-21T08:20:30.899Z,52.78
2017-04-21T08:21:32.345Z,53.35
2017-04-21T08:22:33.771Z,52.40
2017-04-21T08:23:35.205Z,53.23
2017-04-21T08:24:36.637Z,50.46
2017-04-21T08:25:38.066Z,51.70
2017-04-21T08:26:39.494Z,51.80
2017-04-21T08:27:40.924Z,53.83
2017-04-21T08:28:42.348Z,54.27
2017-04-21T08:29:43.775Z,53.89
2017-04-21T08:30:45.208Z,50.85
2017-04-21T08:31:47.286Z,51.89
2017-04-21T08:32:48.716Z,52.56
2017-04-21T08:33:50.139Z,54.08
2017-04-21T08:34:51.567Z,53.83
2017-04-21T08:35:52.994Z,53.13
2017-04-21T08:36:54.421Z,51.23
2017-04-21T08:37:55.867Z,52.66
2017-04-21T08:38:57.294Z,52.75
2017-04-21T08:39:58.723Z,54.59
2017-04-21T08:41:00.155Z,53.23
2017-04-21T08:42:01.589Z,53.52
2017-04-21T08:43:02.980Z,53.52
2017-04-21T08:44:04.421Z,54.47
2017-04-21T08:45:05.945Z,54.88
2017-04-21T08:46:07.386Z,56.11
2017-04-21T08:47:08.794Z,55.07
2017-04-21T08:48:10.270Z,55.26
2017-04-21T08:49:11.722Z,55.63
2017-04-21T08:50:13.154Z,53.42
2017-04-21T08:51:14.582Z,52.68
2017-04-21T08:52:16.010Z,51.06
2017-04-21T08:53:17.471Z,52.59
2017-04-21T08:54:18.890Z,51.54
2017-04-21T08:55:20.318Z,53.25
2017-04-21T08:56:21.756Z,52.78
2017-04-21T08:57:23.185Z,53.85
2017-04-21T08:58:24.626Z,52.42
2017-04-21T08:59:26.058Z,51.37
2017-04-21T09:00:27.490Z,51.76
2017-04-21T09:01:28.918Z,51.09
2017-04-21T09:02:30.352Z,51.28
2017-04-21T09:03:31.787Z,49.78
2017-04-21T09:04:33.213Z,49.59
2017-04-21T09:05:35.299Z,49.59
2017-04-21T09:06:36.746Z,50.16
2017-04-21T09:07:38.181Z,50.26
2017-04-21T09:08:39.621Z,49.11
2017-04-21T09:09:41.046Z,49.49
2017-04-21T09:10:42.480Z,50.54
2017-04-21T09:11:43.911Z,49.87
2017-04-21T09:12:45.344Z,49.21
2017-04-21T09:13:46.781Z,49.30
2017-04-21T09:14:48.206Z,49.87
2017-04-21T09:15:49.633Z,50.54
2017-04-21T09:16:51.067Z,52.45
2017-04-21T09:17:52.497Z,51.31
2017-04-21T19:12:14.156Z,65.67
2017-04-21T19:13:15.535Z,65.10
2017-04-21T19:14:16.965Z,65.42
2017-04-21T19:15:18.396Z,64.81
2017-04-21T19:16:19.824Z,65.39
2017-04-21T19:17:21.264Z,65.01
2017-04-21T19:18:22.693Z,65.20
2017-04-21T19:19:24.116Z,65.01
2017-04-21T19:20:25.540Z,65.10
2017-04-21T19:21:26.983Z,65.10
2017-04-21T19:22:28.416Z,65.14
2017-04-21T19:23:29.839Z,64.72
2017-04-21T19:24:31.272Z,65.01
2017-04-21T19:25:32.704Z,64.43
2017-04-21T19:26:34.130Z,65.10
2017-04-21T19:27:35.562Z,65.01
2017-04-21T19:28:36.994Z,64.81
2017-04-21T19:29:38.412Z,63.86
2017-04-21T19:30:39.843Z,64.43
2017-04-21T19:31:41.218Z,64.43
2017-04-21T19:32:42.649Z,65.10
2017-04-21T19:33:44.085Z,64.62
2017-04-21T19:34:45.517Z,65.10
2017-04-21T19:35:47.732Z,64.34
2017-04-21T19:36:49.168Z,64.25
2017-04-21T19:37:50.584Z,64.62
2017-04-21T19:38:52.021Z,64.81
2017-04-21T19:39:53.452Z,64.72
2017-04-21T19:40:54.874Z,65.10
2017-04-21T19:41:56.267Z,64.72
2017-04-21T19:42:57.693Z,64.91
2017-04-21T19:43:59.118Z,64.62
2017-04-21T19:45:00.544Z,65.30
2017-04-21T19:46:01.974Z,65.20
2017-04-21T19:47:03.410Z,65.20
2017-04-21T19:48:04.834Z,65.30
2017-04-21T19:49:06.262Z,64.53
2017-04-21T19:50:07.690Z,64.81
2017-04-21T19:51:09.123Z,65.48
2017-04-21T19:52:10.549Z,64.78
2017-04-21T19:53:11.982Z,65.10
2017-04-21T19:54:13.417Z,64.88
2017-04-21T19:55:14.844Z,64.59
2017-04-21T19:56:16.273Z,64.43
2017-04-21T19:57:17.716Z,64.43
2017-04-21T19:58:19.142Z,64.91
2017-04-21T19:59:20.567Z,64.34
2017-04-21T20:00:22.001Z,64.43
2017-04-21T20:01:23.431Z,64.43
2017-04-21T20:02:24.857Z,65.17
2017-04-21T20:03:26.288Z,64.40
2017-04-21T20:04:27.717Z,64.59
2017-04-21T20:05:29.154Z,64.97
2017-04-21T20:06:30.577Z,64.40
2017-04-21T20:07:32.008Z,64.69
2017-04-21T20:08:33.435Z,64.50
2017-04-21T20:09:34.870Z,65.07
2017-04-21T20:10:36.295Z,64.78
2017-04-21T20:11:37.723Z,64.59
2017-04-21T20:12:39.158Z,65.17
2017-04-21T20:13:40.588Z,64.21
2017-04-21T20:14:42.022Z,64.40
2017-04-21T20:15:43.452Z,64.72
2017-04-21T20:16:44.901Z,64.31
2017-04-21T20:17:46.329Z,64.69
2017-04-21T20:18:47.755Z,64.59
2017-04-21T20:19:49.185Z,65.26
2017-04-21T20:20:50.564Z,64.31
2017-04-21T20:21:52.000Z,64.40
2017-04-21T20:22:53.421Z,64.40
2017-04-21T20:23:54.847Z,64.21
2017-04-21T20:24:56.283Z,63.92
2017-04-21T20:25:57.705Z,63.73
2017-04-21T20:26:59.147Z,63.64
2017-04-21T20:28:00.572Z,62.68
2017-04-21T20:29:02.000Z,63.16
2017-04-21T20:30:03.429Z,63.35
2017-04-21T20:31:04.852Z,62.88
2017-04-21T20:32:06.284Z,64.59
2017-04-21T20:33:07.711Z,63.83
2017-04-21T20:34:09.144Z,63.86
2017-04-21T20:35:10.573Z,64.12
2017-04-21T20:36:11.995Z,62.97
2017-04-21T20:37:13.421Z,62.97
2017-04-21T20:38:14.846Z,62.78
2017-04-21T20:39:16.271Z,63.16
2017-04-21T20:40:17.700Z,63.83
2017-04-21T20:41:19.127Z,63.73
2017-04-21T20:42:20.550Z,63.73
2017-04-21T20:43:21.985Z,63.92
2017-04-21T20:44:23.413Z,63.73
2017-04-21T20:45:24.846Z,63.73
2017-04-21T20:46:26.274Z,64.12
2017-04-21T20:47:27.714Z,65.36
2017-04-21T20:48:30.048Z,65.64
2017-04-21T20:49:31.490Z,64.69
2017-04-21T20:50:33.519Z,65.36
2017-04-21T20:51:34.911Z,64.59
2017-04-21T20:52:36.339Z,64.88
2017-04-21T20:53:37.783Z,64.78
2017-04-21T20:54:39.212Z,65.17
2017-04-21T20:55:40.654Z,64.78
2017-04-21T20:56:42.083Z,64.69
2017-04-21T20:57:44.443Z,65.07
2017-04-21T20:58:45.877Z,65.64
2017-04-21T20:59:48.157Z,65.17
2017-04-21T21:00:49.592Z,65.64
2017-04-21T21:01:51.018Z,65.36
2017-04-21T21:02:52.453Z,65.64
2017-04-21T21:03:54.510Z,64.50
2017-04-21T21:04:55.942Z,64.88
2017-04-21T21:05:57.999Z,65.64
2017-04-21T21:07:00.020Z,65.89
2017-04-21T21:08:02.371Z,65.61
2017-04-21T21:09:02.824Z,65.55
2017-04-21T21:10:05.054Z,65.45
2017-04-21T21:11:06.484Z,65.52
2017-04-21T21:12:08.576Z,65.64
2017-04-21T21:13:10.644Z,64.97
2017-04-21T21:14:12.716Z,66.38
2017-04-21T21:15:15.122Z,66.12
2017-04-21T21:16:17.110Z,65.83
2017-04-21T21:17:19.512Z,66.28
2017-04-21T21:18:20.943Z,66.75
2017-04-21T21:19:23.334Z,66.56
2017-04-21T21:20:24.764Z,65.70
2017-04-21T21:21:26.749Z,66.66
2017-04-21T21:22:28.953Z,66.47
2017-04-21T21:23:31.127Z,66.66
2017-04-21T21:24:32.558Z,66.50
2017-04-21T21:25:33.998Z,66.94
2017-04-21T21:26:35.426Z,66.47
2017-04-21T21:27:37.440Z,66.28
2017-04-21T21:28:38.874Z,66.94
2017-04-21T21:29:40.323Z,66.75
2017-04-21T21:30:41.749Z,66.66
2017-04-21T21:31:43.183Z,66.28
2017-04-21T21:32:45.567Z,66.09
2017-04-21T21:33:47.000Z,67.14
2017-04-21T21:34:48.427Z,66.66
2017-04-21T21:35:49.935Z,66.66
2017-04-21T21:36:51.375Z,67.04
2017-04-21T21:37:52.805Z,67.04
2017-04-21T21:38:54.243Z,66.47
2017-04-21T21:39:56.647Z,67.52
2017-04-21T21:40:58.088Z,66.66
2017-04-21T21:42:00.205Z,66.75
2017-04-21T21:43:02.573Z,67.04
2017-04-21T21:44:04.553Z,67.52
2017-04-21T21:45:05.998Z,67.42
2017-04-21T21:46:07.437Z,67.33
2017-04-21T21:47:08.871Z,67.90
2017-04-21T21:48:10.318Z,68.47
2017-04-21T21:49:12.568Z,67.61
2017-04-21T21:50:14.665Z,67.71
2017-04-21T21:51:16.810Z,67.14
2017-04-21T21:52:18.243Z,68.18
2017-04-21T21:53:19.674Z,68.38
2017-04-21T21:54:21.098Z,68.09
2017-04-21T21:55:23.076Z,68.18
2017-04-21T21:56:24.511Z,68.51
2017-04-21T21:57:26.795Z,69.14
2017-04-21T21:58:29.082Z,69.23
2017-04-21T21:59:31.340Z,68.85
2017-04-21T22:00:32.770Z,69.33
2017-04-21T22:01:34.213Z,69.04
2017-04-21T22:02:35.644Z,69.23
2017-04-21T22:03:37.021Z,68.95
2017-04-21T22:04:39.343Z,69.14
2017-04-21T22:05:40.773Z,69.14
2017-04-21T22:06:42.204Z,68.76
2017-04-21T22:07:43.628Z,69.43
2017-04-21T22:08:45.055Z,68.95
2017-04-21T22:09:46.498Z,69.43
2017-04-21T22:10:47.923Z,69.90
2017-04-21T22:11:49.355Z,69.90
2017-04-21T22:12:50.789Z,70.19
2017-04-21T22:13:52.224Z,70.00
2017-04-21T22:14:53.645Z,69.33
2017-04-21T22:15:55.069Z,69.43
2017-04-21T22:16:56.508Z,70.76
2017-04-21T22:17:57.922Z,70.95
2017-04-21T22:18:59.367Z,71.14
2017-04-21T22:20:00.791Z,70.86
2017-04-21T22:21:02.219Z,70.76
2017-04-21T22:22:03.653Z,70.76
2017-04-21T22:23:05.090Z,70.76
2017-04-21T22:24:06.516Z,71.62
2017-04-21T22:25:07.983Z,70.76
2017-04-21T22:26:09.417Z,71.33
2017-04-21T22:27:10.846Z,71.72
2017-04-21T22:28:12.351Z,71.33
2017-04-21T22:29:13.794Z,71.81
2017-04-21T22:30:15.225Z,71.81
2017-04-21T22:31:16.649Z,72.28
2017-04-21T22:32:18.090Z,72.19
2017-04-21T22:33:19.526Z,72.09
2017-04-21T22:34:20.953Z,72.00
2017-04-21T22:35:22.382Z,71.52
2017-04-21T22:36:23.807Z,71.81
2017-04-21T22:37:25.238Z,71.52
2017-04-21T22:38:26.663Z,71.81
2017-04-21T22:39:28.093Z,72.00
2017-04-21T22:40:29.515Z,71.62
2017-04-21T22:41:30.939Z,71.91
2017-04-21T22:42:32.363Z,73.14
2017-04-21T22:43:33.787Z,73.62
2017-04-21T22:44:35.165Z,72.67
2017-04-21T22:45:36.589Z,72.67
2017-04-21T22:46:38.014Z,72.38
2017-04-21T22:47:39.451Z,72.57
2017-04-21T22:48:40.876Z,72.28
2017-04-21T22:49:42.311Z,72.76
2017-04-21T22:50:43.734Z,72.48
2017-04-21T22:51:45.162Z,72.76
2017-04-21T22:52:46.598Z,72.86
2017-04-21T22:53:48.025Z,73.05
2017-04-21T22:54:49.453Z,73.33
2017-04-21T22:55:50.899Z,74.19
2017-04-21T22:56:52.329Z,74.29
2017-04-21T22:57:53.738Z,75.15
2017-04-21T22:58:55.189Z,76.10
2017-04-21T22:59:56.615Z,77.25
2017-04-21T23:00:58.045Z,79.25
2017-04-21T23:01:59.485Z,81.59
2017-04-21T23:03:00.907Z,81.88
2017-04-21T23:04:02.327Z,83.02
2017-04-21T23:05:03.751Z,82.35
2017-04-21T23:06:05.181Z,83.21